createdAt,value
2019-03-31T00:03:14.386Z,4.40
2019-03-31T00:08:19.748Z,4.30
2019-03-31T00:13:25.187Z,4.20
2019-03-31T00:18:30.364Z,4.20
2019-03-31T00:23:37.957Z,4.30
2019-03-31T00:28:43.181Z,4.30
2019-03-31T00:33:48.165Z,4.30
2019-03-31T00:38:53.163Z,3.90
2019-03-31T00:43:59.471Z,3.60
2019-03-31T00:49:04.484Z,3.60
2019-03-31T00:54:09.851Z,3.70
2019-03-31T00:59:14.856Z,3.40
2019-03-31T01:04:25.848Z,3.20
2019-03-31T01:09:32.881Z,3.10
2019-03-31T01:14:38.073Z,3.20
2019-03-31T01:19:44.845Z,3.10
2019-03-31T01:24:50.170Z,3.00
2019-03-31T01:29:55.558Z,2.70
2019-03-31T01:35:02.261Z,2.60
2019-03-31T01:40:07.745Z,2.60
2019-03-31T01:45:13.570Z,2.30
2019-03-31T01:50:19.753Z,2.20
2019-03-31T01:55:25.164Z,2.10
2019-03-31T02:00:42.459Z,2.10
2019-03-31T02:05:47.715Z,2.00
2019-03-31T02:10:54.273Z,1.90
2019-03-31T02:15:59.961Z,1.90
2019-03-31T02:21:05.336Z,1.90
2019-03-31T02:26:10.549Z,2.00
2019-03-31T02:31:15.716Z,1.90
2019-03-31T02:36:20.836Z,1.80
2019-03-31T02:41:25.722Z,1.80
2019-03-31T02:46:30.844Z,1.70
2019-03-31T02:51:36.295Z,1.70
2019-03-31T02:56:41.885Z,1.60
2019-03-31T03:01:48.517Z,1.40
2019-03-31T03:06:55.966Z,1.30
2019-03-31T03:12:01.172Z,1.30
2019-03-31T03:17:06.679Z,1.30
2019-03-31T03:22:12.044Z,1.40
2019-03-31T03:27:17.605Z,1.20
2019-03-31T03:32:22.862Z,1.20
2019-03-31T03:37:27.764Z,1.20
2019-03-31T03:42:33.453Z,1.10
2019-03-31T03:47:38.387Z,1.00
2019-03-31T03:52:43.385Z,1.10
2019-03-31T03:57:48.655Z,1.10
2019-03-31T04:02:53.823Z,1.10
2019-03-31T04:07:59.530Z,0.90
2019-03-31T04:13:04.664Z,0.80
2019-03-31T04:18:09.821Z,0.90
2019-03-31T04:23:14.915Z,0.90
2019-03-31T04:28:19.809Z,0.80
2019-03-31T04:33:25.016Z,0.90
2019-03-31T04:38:30.462Z,0.90
2019-03-31T04:43:35.783Z,0.90
2019-03-31T04:48:41.529Z,0.90
2019-03-31T04:53:46.715Z,0.80
2019-03-31T04:58:52.167Z,0.80
2019-03-31T05:04:04.446Z,0.80
2019-03-31T05:09:05.815Z,0.80
2019-03-31T05:14:11.447Z,0.80
2019-03-31T05:19:16.439Z,0.80
2019-03-31T05:24:24.605Z,0.90
2019-03-31T05:29:29.608Z,1.00
2019-03-31T05:34:34.627Z,1.20
2019-03-31T05:39:39.912Z,1.40
2019-03-31T05:44:45.333Z,1.60
2019-03-31T05:49:50.848Z,1.90
2019-03-31T05:54:55.689Z,2.20
2019-03-31T06:00:00.897Z,2.50
2019-03-31T06:05:06.281Z,2.70
2019-03-31T06:10:11.194Z,3.00
2019-03-31T06:15:16.255Z,3.30
2019-03-31T06:20:22.050Z,3.60
2019-03-31T06:25:26.939Z,3.90
2019-03-31T06:30:32.317Z,4.20
2019-03-31T06:35:39.464Z,4.40
2019-03-31T06:40:46.971Z,4.70
2019-03-31T06:45:52.126Z,5.70
2019-03-31T06:51:02.005Z,9.80
2019-03-31T06:56:07.477Z,13.50
2019-03-31T07:01:20.762Z,15.30
2019-03-31T07:06:26.389Z,17.10
2019-03-31T07:11:32.151Z,17.60
2019-03-31T07:16:37.386Z,18.00
2019-03-31T07:21:43.076Z,18.70
2019-03-31T07:26:48.071Z,18.30
2019-03-31T07:31:54.194Z,19.20
2019-03-31T07:36:59.258Z,19.50
2019-03-31T07:42:05.082Z,20.30
2019-03-31T07:47:10.922Z,20.20
2019-03-31T07:52:15.961Z,20.20
2019-03-31T07:57:21.038Z,20.50
2019-03-31T08:02:26.647Z,20.90
2019-03-31T08:07:38.203Z,21.70
2019-03-31T08:12:43.529Z,21.40
2019-03-31T08:17:49.972Z,22.10
2019-03-31T08:22:57.084Z,21.80
2019-03-31T08:28:03.399Z,22.50
2019-03-31T08:33:10.550Z,22.30
2019-03-31T08:38:16.115Z,22.00
2019-03-31T08:43:21.575Z,22.40
2019-03-31T08:48:27.074Z,23.40
2019-03-31T08:53:33.586Z,23.40
2019-03-31T08:58:39.362Z,22.90
2019-03-31T09:03:47.094Z,21.80
2019-03-31T09:08:52.458Z,22.70
2019-03-31T09:13:57.727Z,22.40
2019-03-31T09:19:04.595Z,22.10
2019-03-31T09:24:12.944Z,22.20
2019-03-31T09:29:20.592Z,22.40
2019-03-31T09:34:26.133Z,22.00
2019-03-31T09:39:32.490Z,22.10
2019-03-31T09:44:37.829Z,22.90
2019-03-31T09:49:42.971Z,22.80
2019-03-31T09:54:49.562Z,22.90
2019-03-31T09:59:54.624Z,22.70
2019-03-31T10:05:00.137Z,23.20
2019-03-31T10:10:06.951Z,23.40
2019-03-31T10:15:15.979Z,21.60
2019-03-31T10:20:21.694Z,20.70
2019-03-31T10:25:30.159Z,21.20
2019-03-31T10:30:37.432Z,19.90
2019-03-31T10:35:42.358Z,19.50
2019-03-31T10:40:47.595Z,19.70
2019-03-31T10:45:52.850Z,20.00
2019-03-31T10:50:58.393Z,20.50
2019-03-31T10:56:03.993Z,20.40
2019-03-31T11:01:09.970Z,20.50
2019-03-31T11:06:16.139Z,20.90
2019-03-31T11:11:21.601Z,20.70
2019-03-31T11:16:27.171Z,20.50
2019-03-31T11:21:49.472Z,20.50
2019-03-31T11:26:55.117Z,20.50
2019-03-31T11:32:01.251Z,20.80
2019-03-31T11:37:13.877Z,20.70
2019-03-31T11:42:18.673Z,20.90
2019-03-31T11:47:28.228Z,21.10
2019-03-31T11:52:34.407Z,20.80
2019-03-31T11:57:39.888Z,21.00
2019-03-31T12:02:45.214Z,20.80
2019-03-31T12:07:50.825Z,20.60
2019-03-31T12:12:56.772Z,20.40
2019-03-31T12:18:06.837Z,20.90
2019-03-31T12:23:13.550Z,20.80
2019-03-31T12:28:19.010Z,20.40
2019-03-31T12:33:24.668Z,20.50
2019-03-31T12:38:39.238Z,20.60
2019-03-31T12:43:45.438Z,20.90
2019-03-31T12:48:50.742Z,20.70
2019-03-31T12:53:56.185Z,21.10
2019-03-31T12:59:01.055Z,20.70
2019-03-31T13:04:06.369Z,20.80
2019-03-31T13:09:12.970Z,21.00
2019-03-31T13:14:18.138Z,20.80
2019-03-31T13:19:23.985Z,20.50
2019-03-31T13:24:29.446Z,20.50
2019-03-31T13:29:34.454Z,20.30
2019-03-31T13:34:39.468Z,20.70
2019-03-31T13:39:44.713Z,20.60
2019-03-31T13:44:49.917Z,20.30
2019-03-31T13:49:56.028Z,20.30
2019-03-31T13:55:01.777Z,20.60
2019-03-31T14:00:09.056Z,20.40
2019-03-31T14:05:14.214Z,20.00
2019-03-31T14:10:20.997Z,20.00
2019-03-31T14:15:26.985Z,20.00
2019-03-31T14:20:32.371Z,20.10
2019-03-31T14:25:39.530Z,20.10
2019-03-31T14:30:45.933Z,20.00
2019-03-31T14:35:51.203Z,19.90
2019-03-31T14:40:56.420Z,19.70
2019-03-31T14:46:01.742Z,19.70
2019-03-31T14:51:12.875Z,19.90
2019-03-31T14:56:18.217Z,19.90
2019-03-31T15:01:23.448Z,19.90
2019-03-31T15:06:28.779Z,19.70
2019-03-31T15:11:34.520Z,19.40
2019-03-31T15:16:39.573Z,18.90
2019-03-31T15:21:45.213Z,18.60
2019-03-31T15:37:11.607Z,18.60
2019-03-31T15:42:18.688Z,18.50
2019-03-31T15:47:24.784Z,18.30
2019-03-31T15:52:30.163Z,18.40
2019-03-31T15:57:36.501Z,18.40
2019-03-31T16:02:41.957Z,18.40
2019-03-31T16:07:47.268Z,18.20
2019-03-31T16:12:53.239Z,17.80
2019-03-31T16:17:58.279Z,17.50
2019-03-31T16:23:02.882Z,17.40
2019-03-31T16:28:08.505Z,17.10
2019-03-31T16:33:13.558Z,17.00
2019-03-31T16:38:19.769Z,16.80
2019-03-31T16:43:27.105Z,16.70
2019-03-31T16:48:35.013Z,16.50
2019-03-31T16:53:39.778Z,16.30
2019-03-31T16:58:44.679Z,16.10
2019-03-31T17:03:49.799Z,15.90
2019-03-31T17:08:54.673Z,15.90
2019-03-31T17:13:59.374Z,15.70
2019-03-31T17:19:04.156Z,15.60
2019-03-31T17:24:11.693Z,15.50
2019-03-31T17:29:16.676Z,15.40
2019-03-31T17:34:22.586Z,15.20
2019-03-31T17:39:27.537Z,15.00
2019-03-31T17:44:32.580Z,14.70
2019-03-31T17:49:39.573Z,14.60
2019-03-31T17:54:44.506Z,14.60
2019-03-31T17:59:49.543Z,14.40
2019-03-31T18:04:54.300Z,14.30
2019-03-31T18:10:00.382Z,14.10
2019-03-31T18:15:05.657Z,13.90
2019-03-31T18:20:11.122Z,13.90
2019-03-31T18:25:15.595Z,13.70
2019-03-31T18:30:21.366Z,13.50
2019-03-31T18:35:26.052Z,13.20
2019-03-31T18:40:35.396Z,13.10
2019-03-31T18:45:42.872Z,12.90
2019-03-31T18:50:48.663Z,12.80
2019-03-31T18:56:14.184Z,12.70
2019-03-31T19:01:28.311Z,12.60
2019-03-31T19:07:01.065Z,12.50
2019-03-31T19:12:26.348Z,12.40
2019-03-31T19:17:50.806Z,12.30
2019-03-31T19:23:18.121Z,12.20
2019-03-31T19:28:47.878Z,12.30
2019-03-31T19:34:17.894Z,12.20
2019-03-31T19:39:40.917Z,11.90
2019-03-31T19:45:19.648Z,11.90
2019-03-31T19:50:42.586Z,11.70
2019-03-31T19:56:07.017Z,11.70
2019-03-31T20:01:23.340Z,11.70
2019-03-31T20:07:05.615Z,11.60
2019-03-31T20:12:30.925Z,11.50
2019-03-31T20:17:53.916Z,11.00
2019-03-31T20:23:26.720Z,10.60
2019-03-31T20:28:59.164Z,10.40
2019-03-31T20:34:20.923Z,10.50
2019-03-31T20:39:56.900Z,10.70
2019-03-31T20:45:00.995Z,10.60
2019-03-31T20:50:09.451Z,10.50
2019-03-31T20:55:16.727Z,10.40
2019-03-31T21:00:21.753Z,10.50
2019-03-31T21:05:26.926Z,10.40
2019-03-31T21:10:32.863Z,10.20
2019-03-31T21:15:39.739Z,10.10
2019-03-31T21:20:44.651Z,10.10
2019-03-31T21:25:49.442Z,9.90
2019-03-31T21:30:54.517Z,10.00
2019-03-31T21:36:00.175Z,10.00
2019-03-31T21:41:04.926Z,10.00
2019-03-31T21:46:09.370Z,10.00
2019-03-31T21:51:14.023Z,10.10
2019-03-31T21:56:18.990Z,10.00
2019-03-31T22:01:24.343Z,10.00
2019-03-31T22:06:29.087Z,9.90
2019-03-31T22:11:34.879Z,9.70
2019-03-31T22:16:40.641Z,9.80
2019-03-31T22:21:45.399Z,9.70
2019-03-31T22:26:50.447Z,9.50
2019-03-31T22:31:55.109Z,9.40
2019-03-31T22:36:59.513Z,9.40
2019-03-31T22:42:04.409Z,9.40
2019-03-31T22:47:08.870Z,9.30
2019-03-31T22:52:14.919Z,9.40
2019-03-31T22:57:22.311Z,9.50
2019-03-31T23:02:26.689Z,9.60
2019-03-31T23:07:33.128Z,9.40
2019-03-31T23:12:37.891Z,9.30
2019-03-31T23:17:42.844Z,9.20
2019-03-31T23:22:48.197Z,9.10
2019-03-31T23:27:54.282Z,9.10
2019-03-31T23:32:59.196Z,9.00
2019-03-31T23:38:04.100Z,9.00
2019-03-31T23:43:09.127Z,8.90
2019-03-31T23:48:14.298Z,8.80
2019-03-31T23:53:19.770Z,8.80
2019-03-31T23:58:24.236Z,8.70
